createdAt,value
2022-11-29T00:02:04.332Z,24.10
2022-11-29T00:04:30.920Z,24.37
2022-11-29T00:06:57.423Z,24.30
2022-11-29T00:09:24.023Z,24.60
2022-11-29T00:12:09.148Z,24.05
2022-11-29T00:14:35.634Z,22.45
2022-11-29T00:17:03.269Z,23.40
2022-11-29T00:19:31.158Z,19.70
2022-11-29T00:21:59.214Z,22.58
2022-11-29T00:24:25.962Z,24.05
2022-11-29T00:26:52.693Z,24.88
2022-11-29T00:29:19.232Z,26.07
2022-11-29T00:31:45.768Z,25.38
2022-11-29T00:34:12.991Z,24.77
2022-11-29T00:36:40.068Z,26.83
2022-11-29T00:39:07.093Z,25.58
2022-11-29T00:41:33.769Z,23.90
2022-11-29T00:44:00.588Z,25.05
2022-11-29T00:46:27.160Z,23.70
2022-11-29T00:48:53.818Z,24.55
2022-11-29T00:51:20.399Z,25.38
2022-11-29T00:53:47.022Z,22.87
2022-11-29T00:56:14.013Z,23.65
2022-11-29T00:58:43.490Z,25.70
2022-11-29T01:01:11.181Z,24.75
2022-11-29T01:03:38.276Z,26.05
2022-11-29T01:06:07.993Z,24.17
2022-11-29T01:08:35.264Z,24.33
2022-11-29T01:11:13.154Z,23.48
2022-11-29T01:13:40.612Z,24.27
2022-11-29T01:16:07.707Z,22.60
2022-11-29T01:18:34.864Z,24.57
2022-11-29T01:21:08.241Z,23.42
2022-11-29T01:23:35.776Z,21.20
2022-11-29T01:26:06.039Z,21.80
2022-11-29T01:28:33.415Z,22.88
2022-11-29T01:31:00.145Z,24.17
2022-11-29T01:33:26.726Z,24.58
2022-11-29T01:35:54.535Z,26.05
2022-11-29T01:38:21.976Z,22.88
2022-11-29T01:41:01.680Z,22.90
2022-11-29T01:43:29.059Z,20.93
2022-11-29T01:45:56.297Z,22.13
2022-11-29T01:48:26.681Z,23.50
2022-11-29T01:50:54.989Z,21.52
2022-11-29T01:53:22.347Z,21.45
2022-11-29T01:55:54.196Z,20.13
2022-11-29T01:58:21.424Z,20.52
2022-11-29T02:00:48.420Z,20.15
2022-11-29T02:03:17.043Z,18.75
2022-11-29T02:05:47.823Z,20.90
2022-11-29T02:08:19.983Z,20.80
2022-11-29T02:11:20.433Z,18.55
2022-11-29T02:14:12.294Z,21.92
2022-11-29T02:17:10.479Z,19.65
2022-11-29T02:20:14.412Z,19.40
2022-11-29T02:23:06.669Z,20.20
2022-11-29T02:25:35.851Z,19.80
2022-11-29T02:28:18.528Z,20.67
2022-11-29T02:31:20.455Z,19.30
2022-11-29T02:34:10.870Z,16.77
2022-11-29T02:37:18.491Z,18.67
2022-11-29T02:40:22.166Z,18.95
2022-11-29T02:43:19.349Z,19.73
2022-11-29T02:45:54.335Z,18.10
2022-11-29T02:48:42.661Z,17.88
2022-11-29T02:51:22.611Z,17.93
2022-11-29T02:54:20.484Z,17.50
2022-11-29T02:57:14.591Z,18.52
2022-11-29T02:59:47.194Z,17.75
2022-11-29T03:02:32.443Z,18.95
2022-11-29T03:05:12.631Z,17.90
2022-11-29T03:08:03.463Z,17.13
2022-11-29T03:10:43.510Z,17.15
2022-11-29T03:13:24.020Z,18.45
2022-11-29T03:15:59.810Z,18.27
2022-11-29T03:18:51.523Z,20.33
2022-11-29T03:21:31.327Z,16.85
2022-11-29T03:24:04.894Z,17.90
2022-11-29T03:26:41.546Z,18.00
2022-11-29T03:29:26.586Z,18.00
2022-11-29T03:32:02.442Z,18.43
2022-11-29T03:35:02.933Z,18.20
2022-11-29T03:37:40.435Z,16.90
2022-11-29T03:40:11.769Z,18.83
2022-11-29T03:43:14.170Z,18.10
2022-11-29T03:46:02.895Z,17.43
2022-11-29T03:48:41.011Z,17.27
2022-11-29T03:51:18.824Z,16.92
2022-11-29T03:53:51.998Z,17.00
2022-11-29T03:56:34.708Z,17.35
2022-11-29T03:59:07.304Z,13.77
2022-11-29T04:02:10.998Z,15.48
2022-11-29T04:05:06.679Z,15.68
2022-11-29T04:08:01.928Z,14.98
2022-11-29T04:10:51.814Z,15.45
2022-11-29T04:14:05.763Z,14.50
2022-11-29T04:17:12.688Z,13.70
2022-11-29T04:20:03.465Z,15.07
2022-11-29T04:22:52.773Z,15.10
2022-11-29T04:25:49.410Z,14.18
2022-11-29T04:28:23.333Z,14.13
2022-11-29T04:31:33.364Z,14.65
2022-11-29T04:34:20.477Z,14.68
2022-11-29T04:37:24.425Z,14.98
2022-11-29T04:40:20.352Z,14.52
2022-11-29T04:43:03.225Z,13.57
2022-11-29T04:45:48.143Z,16.60
2022-11-29T04:48:32.695Z,14.20
2022-11-29T04:51:26.272Z,16.05
2022-11-29T04:54:08.149Z,15.68
2022-11-29T04:56:45.574Z,13.50
2022-11-29T04:59:38.084Z,14.50
2022-11-29T05:02:10.695Z,13.93
2022-11-29T05:04:53.528Z,15.68
2022-11-29T05:07:51.122Z,13.52
2022-11-29T05:10:39.118Z,14.47
2022-11-29T05:13:18.392Z,13.88
2022-11-29T05:16:06.997Z,14.25
2022-11-29T05:18:57.662Z,15.02
2022-11-29T05:22:01.959Z,14.32
2022-11-29T05:24:45.740Z,14.30
2022-11-29T05:27:33.383Z,13.70
2022-11-29T05:30:06.592Z,11.73
2022-11-29T05:32:45.055Z,13.40
2022-11-29T05:35:29.522Z,12.38
2022-11-29T05:38:23.404Z,12.93
2022-11-29T05:40:59.422Z,12.40
2022-11-29T05:43:56.297Z,14.07
2022-11-29T05:46:31.159Z,12.00
2022-11-29T05:49:14.016Z,10.93
2022-11-29T05:51:50.465Z,12.50
2022-11-29T05:54:42.456Z,10.82
2022-11-29T05:57:33.808Z,9.05
2022-11-29T06:00:05.572Z,9.00
2022-11-29T06:03:00.053Z,9.98
2022-11-29T06:05:35.971Z,9.70
2022-11-29T06:08:13.278Z,10.02
2022-11-29T06:10:52.192Z,9.18
2022-11-29T06:13:50.955Z,9.25
2022-11-29T06:16:25.124Z,8.70
2022-11-29T06:19:30.567Z,10.37
2022-11-29T06:22:27.027Z,9.63
2022-11-29T06:25:11.010Z,9.15
2022-11-29T06:28:07.364Z,9.32
2022-11-29T06:30:48.970Z,10.63
2022-11-29T06:33:25.043Z,11.37
2022-11-29T06:36:17.767Z,10.90
2022-11-29T06:38:44.838Z,12.02
2022-11-29T06:41:19.470Z,11.35
2022-11-29T06:43:46.349Z,11.27
2022-11-29T06:46:25.174Z,11.80
2022-11-29T06:49:02.094Z,11.35
2022-11-29T06:51:36.245Z,11.90
2022-11-29T06:54:10.852Z,12.07
2022-11-29T06:56:44.294Z,11.45
2022-11-29T06:59:34.477Z,11.53
2022-11-29T07:02:10.994Z,12.10
2022-11-29T07:04:51.066Z,11.48
2022-11-29T07:07:22.941Z,10.40
2022-11-29T07:09:52.238Z,8.75
2022-11-29T07:12:19.318Z,10.83
2022-11-29T07:14:46.955Z,10.40
2022-11-29T07:17:30.959Z,9.27
2022-11-29T07:20:10.010Z,10.90
2022-11-29T07:23:03.012Z,9.38
2022-11-29T07:25:39.954Z,10.37
2022-11-29T07:28:31.842Z,9.80
2022-11-29T07:31:16.282Z,11.18
2022-11-29T07:33:54.759Z,8.30
2022-11-29T07:36:38.211Z,9.13
2022-11-29T07:39:22.716Z,9.13
2022-11-29T07:41:55.168Z,8.45
2022-11-29T07:44:36.243Z,7.97
2022-11-29T07:47:02.920Z,9.07
2022-11-29T07:49:32.647Z,9.63
2022-11-29T07:51:59.354Z,8.53
2022-11-29T07:54:26.170Z,9.10
2022-11-29T07:56:52.823Z,8.18
2022-11-29T07:59:20.136Z,8.95
2022-11-29T08:01:47.131Z,9.10
2022-11-29T08:04:14.191Z,10.37
2022-11-29T08:06:40.925Z,8.57
2022-11-29T08:09:07.704Z,9.00
2022-11-29T08:11:34.303Z,7.78
2022-11-29T08:14:03.042Z,7.07
2022-11-29T08:16:30.304Z,9.23
2022-11-29T08:18:56.938Z,9.23
2022-11-29T08:21:23.672Z,8.20
2022-11-29T08:23:51.557Z,8.50
2022-11-29T08:26:19.376Z,9.27
2022-11-29T08:28:51.884Z,7.93
2022-11-29T08:31:20.452Z,7.82
2022-11-29T08:33:50.542Z,8.02
2022-11-29T08:36:20.967Z,8.13
2022-11-29T08:38:48.397Z,7.68
2022-11-29T08:41:16.818Z,7.33
2022-11-29T08:43:44.401Z,7.57
2022-11-29T08:46:17.969Z,6.97
2022-11-29T08:48:45.113Z,7.70
2022-11-29T08:51:11.873Z,6.30
2022-11-29T08:53:41.661Z,6.70
2022-11-29T08:59:04.321Z,6.45
2022-11-29T09:01:31.055Z,5.70
2022-11-29T09:04:02.982Z,6.63
2022-11-29T09:06:37.626Z,6.33
2022-11-29T09:09:06.368Z,6.90
2022-11-29T09:11:34.692Z,5.90
2022-11-29T09:14:04.168Z,6.05
2022-11-29T09:16:33.806Z,6.47
2022-11-29T09:19:00.675Z,5.53
2022-11-29T09:21:29.526Z,5.47
2022-11-29T09:23:59.351Z,6.70
2022-11-29T09:26:30.059Z,6.70
2022-11-29T09:29:01.144Z,7.18
2022-11-29T09:31:28.986Z,6.70
2022-11-29T09:33:57.094Z,7.40
2022-11-29T09:36:28.494Z,6.78
2022-11-29T09:38:56.807Z,7.55
2022-11-29T09:41:48.751Z,5.75
2022-11-29T09:44:38.739Z,6.10
2022-11-29T09:47:28.292Z,5.25
2022-11-29T09:50:24.486Z,5.57
2022-11-29T09:53:26.770Z,5.40
2022-11-29T09:56:16.053Z,6.40
2022-11-29T09:58:57.210Z,5.27
2022-11-29T10:01:30.938Z,6.07
2022-11-29T10:04:05.971Z,6.40
2022-11-29T10:06:41.016Z,5.80
2022-11-29T10:09:17.332Z,7.90
2022-11-29T10:11:57.079Z,4.97
2022-11-29T10:14:29.660Z,5.25
2022-11-29T10:17:18.237Z,5.95
2022-11-29T10:19:50.753Z,4.18
2022-11-29T10:22:39.148Z,3.45
2022-11-29T10:25:08.697Z,5.67
2022-11-29T10:27:39.906Z,5.55
2022-11-29T10:30:14.811Z,5.85
2022-11-29T10:32:44.227Z,4.22
2022-11-29T10:35:18.367Z,5.85
2022-11-29T10:38:22.293Z,5.33
2022-11-29T10:40:39.778Z,4.93
2022-11-29T10:43:06.465Z,6.07
2022-11-29T10:45:50.021Z,5.53
2022-11-29T10:48:19.361Z,4.28
2022-11-29T10:50:48.870Z,3.93
2022-11-29T10:53:20.246Z,4.63
2022-11-29T10:55:51.977Z,4.85
2022-11-29T10:58:27.894Z,5.18
2022-11-29T11:00:58.686Z,5.75
2022-11-29T11:03:33.983Z,5.03
2022-11-29T11:06:00.573Z,5.53
2022-11-29T11:08:28.828Z,5.50
2022-11-29T11:11:01.236Z,5.30
2022-11-29T11:13:31.030Z,4.75
2022-11-29T11:16:18.412Z,5.30
2022-11-29T11:18:49.938Z,5.18
2022-11-29T11:21:19.903Z,7.93
2022-11-29T11:23:54.005Z,5.38
2022-11-29T11:26:22.410Z,5.70
2022-11-29T11:29:03.260Z,5.10
2022-11-29T11:31:34.518Z,5.85
2022-11-29T11:34:34.260Z,5.88
2022-11-29T11:37:18.496Z,5.60
2022-11-29T11:39:47.847Z,6.40
2022-11-29T11:42:38.676Z,5.30
2022-11-29T11:45:27.958Z,7.10
2022-11-29T11:48:13.752Z,5.00
2022-11-29T11:50:44.725Z,4.93
2022-11-29T11:53:29.184Z,5.82
2022-11-29T11:56:00.577Z,6.57
2022-11-29T11:58:29.586Z,6.38
2022-11-29T12:01:13.537Z,7.25
2022-11-29T12:03:57.040Z,5.30
2022-11-29T12:06:36.288Z,5.82
2022-11-29T12:09:05.731Z,6.47
2022-11-29T12:11:41.298Z,7.40
2022-11-29T12:14:16.178Z,5.70
2022-11-29T12:16:43.388Z,6.75
2022-11-29T12:19:21.744Z,6.50
2022-11-29T12:21:53.157Z,6.97
2022-11-29T12:24:37.995Z,6.93
2022-11-29T12:27:06.195Z,6.22
2022-11-29T12:29:34.571Z,7.10
2022-11-29T12:32:04.238Z,6.95
2022-11-29T12:34:49.472Z,6.87
2022-11-29T12:37:57.901Z,6.80
2022-11-29T12:41:06.450Z,6.65
2022-11-29T12:43:49.574Z,7.35
2022-11-29T12:46:26.043Z,6.97
2022-11-29T12:49:05.619Z,6.90
2022-11-29T12:52:02.052Z,6.40
2022-11-29T12:54:58.310Z,6.50
2022-11-29T12:57:49.426Z,5.63
2022-11-29T13:00:18.997Z,6.32
2022-11-29T13:02:54.609Z,6.50
2022-11-29T13:05:41.558Z,6.57
2022-11-29T13:08:28.435Z,6.90
2022-11-29T13:11:06.978Z,6.60
2022-11-29T13:13:50.012Z,6.32
2022-11-29T13:16:54.342Z,7.20
2022-11-29T13:19:55.573Z,6.75
2022-11-29T13:22:42.888Z,5.93
2022-11-29T13:25:26.874Z,5.95
2022-11-29T13:28:02.439Z,6.38
2022-11-29T13:30:29.506Z,6.97
2022-11-29T13:33:06.846Z,5.97
2022-11-29T13:35:41.755Z,6.85
2022-11-29T13:38:19.083Z,6.60
2022-11-29T13:40:52.191Z,7.32
2022-11-29T13:43:41.604Z,8.17
2022-11-29T13:46:26.454Z,6.13
2022-11-29T13:48:54.708Z,6.15
2022-11-29T13:51:25.889Z,6.78
2022-11-29T13:53:56.897Z,6.45
2022-11-29T13:56:33.580Z,7.03
2022-11-29T13:59:03.621Z,6.53
2022-11-29T14:01:42.500Z,6.68
2022-11-29T14:04:26.636Z,5.78
2022-11-29T14:07:04.283Z,5.95
2022-11-29T14:09:47.533Z,5.57
2022-11-29T14:12:21.201Z,5.00
2022-11-29T14:15:05.785Z,4.95
2022-11-29T14:17:50.687Z,5.20
2022-11-29T14:20:23.340Z,5.45
2022-11-29T14:23:08.004Z,5.23
2022-11-29T14:26:00.987Z,4.82
2022-11-29T14:28:38.749Z,4.35
2022-11-29T14:31:07.379Z,5.10
2022-11-29T14:34:16.592Z,4.85
2022-11-29T14:36:54.825Z,4.90
2022-11-29T14:39:28.094Z,4.68
2022-11-29T14:42:17.094Z,4.82
2022-11-29T14:44:53.027Z,4.55
2022-11-29T14:47:34.648Z,5.05
2022-11-29T14:50:07.588Z,4.87
2022-11-29T14:52:38.964Z,4.78
2022-11-29T14:55:18.703Z,6.00
2022-11-29T14:57:49.639Z,5.50
2022-11-29T15:00:22.739Z,5.90
2022-11-29T15:03:12.116Z,5.23
2022-11-29T15:05:43.579Z,5.25
2022-11-29T15:08:28.113Z,5.93
2022-11-29T15:11:06.467Z,6.85
2022-11-29T15:13:41.069Z,6.53
2022-11-29T15:16:38.846Z,6.73
2022-11-29T15:19:41.736Z,5.95
2022-11-29T15:22:18.514Z,7.93
2022-11-29T15:25:14.510Z,6.32
2022-11-29T15:30:52.507Z,6.37
2022-11-29T15:33:26.201Z,7.15
2022-11-29T15:35:57.065Z,6.85
2022-11-29T15:38:27.549Z,8.00
2022-11-29T15:40:58.764Z,7.47
2022-11-29T15:43:37.341Z,8.07
2022-11-29T15:46:06.622Z,9.13
2022-11-29T15:48:36.160Z,9.43
2022-11-29T15:51:18.724Z,9.05
2022-11-29T15:54:12.371Z,8.73
2022-11-29T15:56:48.092Z,7.03
2022-11-29T15:59:36.024Z,8.05
2022-11-29T16:02:18.618Z,6.20
2022-11-29T16:04:51.105Z,6.63
2022-11-29T16:07:21.509Z,9.57
2022-11-29T16:09:56.619Z,8.10
2022-11-29T16:12:26.314Z,7.70
2022-11-29T16:14:57.934Z,7.93
2022-11-29T16:17:32.132Z,8.38
2022-11-29T16:20:19.850Z,7.65
2022-11-29T16:22:49.154Z,7.40
2022-11-29T16:25:21.526Z,7.60
2022-11-29T16:27:55.028Z,7.25
2022-11-29T16:30:25.893Z,7.70
2022-11-29T16:33:00.585Z,7.28
2022-11-29T16:35:37.580Z,7.23
2022-11-29T16:38:06.258Z,7.70
2022-11-29T16:40:36.540Z,7.22
2022-11-29T16:43:06.595Z,8.40
2022-11-29T16:45:36.528Z,7.10
2022-11-29T16:48:24.516Z,7.80
2022-11-29T16:51:19.344Z,7.85
2022-11-29T16:53:55.029Z,7.57
2022-11-29T16:56:26.135Z,8.10
2022-11-29T16:59:25.482Z,9.45
2022-11-29T17:01:43.368Z,9.13
2022-11-29T17:04:09.884Z,8.50
2022-11-29T17:06:37.110Z,8.18
2022-11-29T17:09:04.404Z,8.73
2022-11-29T17:11:32.553Z,9.27
2022-11-29T17:13:59.285Z,8.20
2022-11-29T17:16:26.022Z,7.82
2022-11-29T17:18:53.018Z,12.15
2022-11-29T17:21:21.397Z,8.70
2022-11-29T17:23:48.835Z,8.45
2022-11-29T17:26:15.595Z,9.37
2022-11-29T17:28:47.350Z,9.27
2022-11-29T17:31:16.276Z,8.88
2022-11-29T17:33:43.316Z,8.25
2022-11-29T17:36:12.616Z,9.13
2022-11-29T17:38:39.156Z,7.80
2022-11-29T17:41:08.512Z,9.32
2022-11-29T17:43:36.719Z,7.88
2022-11-29T17:46:17.251Z,8.23
2022-11-29T17:48:46.193Z,7.28
2022-11-29T17:51:43.608Z,8.67
2022-11-29T17:54:04.488Z,8.00
2022-11-29T17:56:31.375Z,7.15
2022-11-29T17:59:00.245Z,7.93
2022-11-29T18:01:29.159Z,7.43
2022-11-29T18:03:58.086Z,7.57
2022-11-29T18:06:27.164Z,7.75
2022-11-29T18:08:56.649Z,8.00
2022-11-29T18:11:24.859Z,8.57
2022-11-29T18:13:53.678Z,7.85
2022-11-29T18:16:35.268Z,7.40
2022-11-29T18:19:08.308Z,8.30
2022-11-29T18:21:35.645Z,7.03
2022-11-29T18:24:04.356Z,7.10
2022-11-29T18:26:32.901Z,6.47
2022-11-29T18:28:59.953Z,6.73
2022-11-29T18:31:29.765Z,6.90
2022-11-29T18:34:05.981Z,7.68
2022-11-29T18:36:35.446Z,7.43
2022-11-29T18:39:05.051Z,7.07
2022-11-29T18:41:32.110Z,7.20
2022-11-29T18:44:02.954Z,6.97
2022-11-29T18:46:33.059Z,6.95
2022-11-29T18:49:01.330Z,6.72
2022-11-29T18:51:29.847Z,6.45
2022-11-29T18:53:57.088Z,7.90
2022-11-29T18:56:26.000Z,7.50
2022-11-29T18:58:58.506Z,8.15
2022-11-29T19:01:28.086Z,7.63
2022-11-29T19:03:56.994Z,7.40
2022-11-29T19:06:27.940Z,6.60
2022-11-29T19:08:54.850Z,6.63
2022-11-29T19:11:23.536Z,6.20
2022-11-29T19:13:56.805Z,6.60
2022-11-29T19:16:25.647Z,5.93
2022-11-29T19:18:54.895Z,5.80
2022-11-29T19:21:23.047Z,5.43
2022-11-29T19:23:54.520Z,5.53
2022-11-29T19:26:22.310Z,5.22
2022-11-29T19:28:49.967Z,5.28
2022-11-29T19:31:18.701Z,4.93
2022-11-29T19:33:45.839Z,4.32
2022-11-29T19:36:19.820Z,4.82
2022-11-29T19:38:51.673Z,6.07
2022-11-29T19:41:23.192Z,5.00
2022-11-29T19:43:50.509Z,4.90
2022-11-29T19:46:20.840Z,5.40
2022-11-29T19:48:48.010Z,4.47
2022-11-29T19:51:19.175Z,5.32
2022-11-29T19:53:46.996Z,3.95
2022-11-29T19:56:17.449Z,4.63
2022-11-29T19:58:44.398Z,4.85
2022-11-29T20:01:17.552Z,4.72
2022-11-29T20:03:47.408Z,5.72
2022-11-29T20:06:16.129Z,4.95
2022-11-29T20:08:43.135Z,5.33
2022-11-29T20:11:11.261Z,5.18
2022-11-29T20:13:38.876Z,5.72
2022-11-29T20:16:09.856Z,5.55
2022-11-29T20:18:39.280Z,5.68
2022-11-29T20:21:08.132Z,5.03
2022-11-29T20:23:34.956Z,5.75
2022-11-29T20:26:01.842Z,4.80
2022-11-29T20:28:28.424Z,4.97
2022-11-29T20:30:55.379Z,5.38
2022-11-29T20:33:23.908Z,4.70
2022-11-29T20:36:02.237Z,4.45
2022-11-29T20:38:37.487Z,4.47
2022-11-29T20:41:14.873Z,4.25
2022-11-29T20:43:48.039Z,4.72
2022-11-29T20:46:14.775Z,4.27
2022-11-29T20:48:41.619Z,3.47
2022-11-29T20:51:10.973Z,4.43
2022-11-29T20:53:42.903Z,4.75
2022-11-29T20:56:11.397Z,4.60
2022-11-29T20:58:39.050Z,4.13
2022-11-29T21:01:06.556Z,3.30
2022-11-29T21:03:33.357Z,4.78
2022-11-29T21:06:03.014Z,4.00
2022-11-29T21:08:32.986Z,4.43
2022-11-29T21:11:08.993Z,4.60
2022-11-29T21:13:35.785Z,4.45
2022-11-29T21:16:20.993Z,4.50
2022-11-29T21:18:59.531Z,4.38
2022-11-29T21:22:11.252Z,4.20
2022-11-29T21:25:01.832Z,4.23
2022-11-29T21:27:32.837Z,5.38
2022-11-29T21:30:00.693Z,5.03
2022-11-29T21:32:27.762Z,4.80
2022-11-29T21:34:54.223Z,4.40
2022-11-29T21:37:25.029Z,4.73
2022-11-29T21:39:53.112Z,4.18
2022-11-29T21:42:20.382Z,4.65
2022-11-29T21:44:47.453Z,4.90
2022-11-29T21:47:14.358Z,4.90
2022-11-29T21:49:40.894Z,4.93
2022-11-29T21:52:07.662Z,5.25
2022-11-29T21:54:34.345Z,4.70
2022-11-29T21:57:01.693Z,5.35
2022-11-29T21:59:30.159Z,5.80
2022-11-29T22:01:57.134Z,4.53
2022-11-29T22:04:23.949Z,4.90
2022-11-29T22:06:50.841Z,5.03
2022-11-29T22:09:17.638Z,5.68
2022-11-29T22:11:44.625Z,4.63
2022-11-29T22:14:13.739Z,5.30
2022-11-29T22:16:46.259Z,5.57
2022-11-29T22:19:14.754Z,5.53
2022-11-29T22:21:47.002Z,5.90
2022-11-29T22:24:15.351Z,5.63
2022-11-29T22:26:43.780Z,5.20
2022-11-29T22:29:11.414Z,5.30
2022-11-29T22:31:38.391Z,5.07
2022-11-29T22:34:05.179Z,5.90
2022-11-29T22:36:31.842Z,6.30
2022-11-29T22:38:58.518Z,6.40
2022-11-29T22:41:25.679Z,5.55
2022-11-29T22:43:53.033Z,7.28
2022-11-29T22:46:22.209Z,8.00
2022-11-29T22:48:52.490Z,8.40
2022-11-29T22:51:21.743Z,7.33
2022-11-29T22:53:53.659Z,9.00
2022-11-29T22:56:21.376Z,9.50
2022-11-29T22:58:48.121Z,8.48
2022-11-29T23:01:20.290Z,7.68
2022-11-29T23:03:54.459Z,8.87
2022-11-29T23:06:29.453Z,8.23
2022-11-29T23:08:58.433Z,8.45
2022-11-29T23:11:27.717Z,9.10
2022-11-29T23:13:54.996Z,8.65
2022-11-29T23:16:23.963Z,9.03
2022-11-29T23:18:50.822Z,9.27
2022-11-29T23:21:27.027Z,10.38
2022-11-29T23:23:56.556Z,9.95
2022-11-29T23:26:26.817Z,9.88
2022-11-29T23:28:54.821Z,9.17
2022-11-29T23:31:25.195Z,9.35
2022-11-29T23:33:51.859Z,9.57
2022-11-29T23:36:18.859Z,9.02
2022-11-29T23:38:45.723Z,9.32
2022-11-29T23:41:12.747Z,9.30
2022-11-29T23:43:41.075Z,9.68
2022-11-29T23:46:16.748Z,9.88
2022-11-29T23:48:43.968Z,10.10
2022-11-29T23:51:11.309Z,9.02
2022-11-29T23:53:38.172Z,10.93
2022-11-29T23:56:08.588Z,11.13
2022-11-29T23:58:35.069Z,11.35
